sensor_id;sensor_type;location;lat;lon;timestamp;temperature;humidity
5631;DHT22;2837;50.990;7.124;2023-06-10T05:01:36;19.00;99.90
5631;DHT22;2837;50.990;7.124;2023-06-10T05:04:02;18.90;99.90
5631;DHT22;2837;50.990;7.124;2023-06-10T05:08:54;18.90;99.90
5631;DHT22;2837;50.990;7.124;2023-06-10T05:11:20;18.90;99.90
5631;DHT22;2837;50.990;7.124;2023-06-10T05:13:45;18.90;99.90
5631;DHT22;2837;50.990;7.124;2023-06-10T05:16:11;19.00;99.90
5631;DHT22;2837;50.990;7.124;2023-06-10T05:18:36;19.00;99.90
5631;DHT22;2837;50.990;7.124;2023-06-10T05:21:02;19.10;99.90
5631;DHT22;2837;50.990;7.124;2023-06-10T05:23:28;19.00;99.90
5631;DHT22;2837;50.990;7.124;2023-06-10T05:25:53;19.10;99.90
5631;DHT22;2837;50.990;7.124;2023-06-10T05:28:19;19.10;99.90
5631;DHT22;2837;50.990;7.124;2023-06-10T05:30:45;19.10;99.90
5631;DHT22;2837;50.990;7.124;2023-06-10T05:33:10;19.10;99.90
5631;DHT22;2837;50.990;7.124;2023-06-10T05:38:02;19.20;99.90
5631;DHT22;2837;50.990;7.124;2023-06-10T05:40:28;19.20;99.90
5631;DHT22;2837;50.990;7.124;2023-06-10T05:42:53;19.30;99.90
5631;DHT22;2837;50.990;7.124;2023-06-10T05:45:19;19.30;99.90
5631;DHT22;2837;50.990;7.124;2023-06-10T05:50:11;19.30;99.90
5631;DHT22;2837;50.990;7.124;2023-06-10T05:55:05;19.40;99.90
5631;DHT22;2837;50.990;7.124;2023-06-10T05:57:31;19.40;99.90
5631;DHT22;2837;50.990;7.124;2023-06-10T05:59:56;19.40;99.90
5631;DHT22;2837;50.990;7.124;2023-06-10T06:02:22;19.40;99.90
5631;DHT22;2837;50.990;7.124;2023-06-10T06:04:48;19.50;99.90
5631;DHT22;2837;50.990;7.124;2023-06-10T06:07:14;19.50;99.90
5631;DHT22;2837;50.990;7.124;2023-06-10T06:12:06;19.50;99.90
5631;DHT22;2837;50.990;7.124;2023-06-10T06:14:32;19.50;99.90
5631;DHT22;2837;50.990;7.124;2023-06-10T06:17:02;19.50;99.90
5631;DHT22;2837;50.990;7.124;2023-06-10T06:19:27;19.50;99.90
5631;DHT22;2837;50.990;7.124;2023-06-10T06:21:53;19.60;99.90
5631;DHT22;2837;50.990;7.124;2023-06-10T06:29:10;19.60;99.90
5631;DHT22;2837;50.990;7.124;2023-06-10T06:31:36;19.50;99.90
5631;DHT22;2837;50.990;7.124;2023-06-10T06:34:02;19.60;99.90
5631;DHT22;2837;50.990;7.124;2023-06-10T06:36:27;19.50;99.90
5631;DHT22;2837;50.990;7.124;2023-06-10T06:38:53;19.50;99.90
5631;DHT22;2837;50.990;7.124;2023-06-10T06:41:18;19.50;99.90
5631;DHT22;2837;50.990;7.124;2023-06-10T06:43:44;19.50;99.90
5631;DHT22;2837;50.990;7.124;2023-06-10T06:48:36;19.50;99.90
5631;DHT22;2837;50.990;7.124;2023-06-10T06:51:01;19.50;99.90
5631;DHT22;2837;50.990;7.124;2023-06-10T06:53:27;19.50;99.90
5631;DHT22;2837;50.990;7.124;2023-06-10T06:55:53;19.50;99.90
5631;DHT22;2837;50.990;7.124;2023-06-10T06:58:19;19.50;99.90
5631;DHT22;2837;50.990;7.124;2023-06-10T07:05:36;19.50;99.90
5631;DHT22;2837;50.990;7.124;2023-06-10T07:08:02;19.50;99.90
5631;DHT22;2837;50.990;7.124;2023-06-10T07:10:28;19.50;99.90
5631;DHT22;2837;50.990;7.124;2023-06-10T07:12:54;19.50;99.90
5631;DHT22;2837;50.990;7.124;2023-06-10T07:27:32;19.60;99.90
5631;DHT22;2837;50.990;7.124;2023-06-10T07:32:26;19.70;99.90
5631;DHT22;2837;50.990;7.124;2023-06-10T07:34:51;19.70;99.90
5631;DHT22;2837;50.990;7.124;2023-06-10T07:47:03;19.70;99.90
5631;DHT22;2837;50.990;7.124;2023-06-10T07:49:28;19.70;99.90
5631;DHT22;2837;50.990;7.124;2023-06-10T07:56:47;19.70;99.90
5631;DHT22;2837;50.990;7.124;2023-06-10T07:59:14;19.70;99.90
5631;DHT22;2837;50.990;7.124;2023-06-10T08:04:06;19.80;99.90
5631;DHT22;2837;50.990;7.124;2023-06-10T08:06:32;19.80;99.90
5631;DHT22;2837;50.990;7.124;2023-06-10T08:08:57;19.80;99.90
5631;DHT22;2837;50.990;7.124;2023-06-10T08:11:23;19.80;99.90
5631;DHT22;2837;50.990;7.124;2023-06-10T08:23:32;19.80;99.90
5631;DHT22;2837;50.990;7.124;2023-06-10T08:28:24;19.90;99.90
5631;DHT22;2837;50.990;7.124;2023-06-10T08:30:50;19.90;99.90
5631;DHT22;2837;50.990;7.124;2023-06-10T08:40:33;19.90;99.90
5631;DHT22;2837;50.990;7.124;2023-06-10T08:43:05;19.90;99.90
5631;DHT22;2837;50.990;7.124;2023-06-10T08:45:34;19.90;99.90
5631;DHT22;2837;50.990;7.124;2023-06-10T08:48:03;19.90;99.90
5631;DHT22;2837;50.990;7.124;2023-06-10T08:50:34;20.00;99.90
5631;DHT22;2837;50.990;7.124;2023-06-10T08:53:00;20.00;99.90
5631;DHT22;2837;50.990;7.124;2023-06-10T08:55:30;20.00;99.90
5631;DHT22;2837;50.990;7.124;2023-06-10T08:57:58;20.00;99.90
5631;DHT22;2837;50.990;7.124;2023-06-10T09:00:25;20.10;99.90
5631;DHT22;2837;50.990;7.124;2023-06-10T09:02:51;20.00;99.90
5631;DHT22;2837;50.990;7.124;2023-06-10T09:07:45;20.10;99.90
5631;DHT22;2837;50.990;7.124;2023-06-10T09:10:11;20.10;99.90
5631;DHT22;2837;50.990;7.124;2023-06-10T09:12:37;20.00;99.90
5631;DHT22;2837;50.990;7.124;2023-06-10T09:15:07;20.10;99.90
5631;DHT22;2837;50.990;7.124;2023-06-10T09:17:33;20.10;99.90
5631;DHT22;2837;50.990;7.124;2023-06-10T09:19:59;20.10;99.90
5631;DHT22;2837;50.990;7.124;2023-06-10T09:22:25;20.20;99.90
5631;DHT22;2837;50.990;7.124;2023-06-10T09:25:01;20.20;99.90
5631;DHT22;2837;50.990;7.124;2023-06-10T09:27:30;20.20;99.90
5631;DHT22;2837;50.990;7.124;2023-06-10T09:29:57;20.20;99.90
5631;DHT22;2837;50.990;7.124;2023-06-10T09:32:24;20.20;99.90
5631;DHT22;2837;50.990;7.124;2023-06-10T09:34:49;20.20;99.90
5631;DHT22;2837;50.990;7.124;2023-06-10T09:37:23;20.30;99.90
5631;DHT22;2837;50.990;7.124;2023-06-10T09:40:06;20.40;99.90
5631;DHT22;2837;50.990;7.124;2023-06-10T09:42:36;20.40;99.90
5631;DHT22;2837;50.990;7.124;2023-06-10T09:45:07;20.40;99.90
5631;DHT22;2837;50.990;7.124;2023-06-10T09:47:33;20.50;99.90
5631;DHT22;2837;50.990;7.124;2023-06-10T09:49:58;20.50;99.90
5631;DHT22;2837;50.990;7.124;2023-06-10T09:52:25;20.50;99.90
5631;DHT22;2837;50.990;7.124;2023-06-10T09:54:51;20.50;99.90
5631;DHT22;2837;50.990;7.124;2023-06-10T09:57:18;20.60;99.90
5631;DHT22;2837;50.990;7.124;2023-06-10T09:59:45;20.50;99.90
5631;DHT22;2837;50.990;7.124;2023-06-10T10:02:18;20.60;99.90
5631;DHT22;2837;50.990;7.124;2023-06-10T10:04:44;20.70;99.90
5631;DHT22;2837;50.990;7.124;2023-06-10T10:07:10;20.60;99.90
5631;DHT22;2837;50.990;7.124;2023-06-10T10:09:38;20.60;99.90
5631;DHT22;2837;50.990;7.124;2023-06-10T10:12:09;20.60;99.90
5631;DHT22;2837;50.990;7.124;2023-06-10T10:14:36;20.60;99.90
5631;DHT22;2837;50.990;7.124;2023-06-10T10:17:04;20.60;99.90
5631;DHT22;2837;50.990;7.124;2023-06-10T10:19:35;20.60;99.90
5631;DHT22;2837;50.990;7.124;2023-06-10T10:22:06;20.70;99.90
5631;DHT22;2837;50.990;7.124;2023-06-10T10:24:38;20.80;99.90
5631;DHT22;2837;50.990;7.124;2023-06-10T10:27:16;20.90;99.90
5631;DHT22;2837;50.990;7.124;2023-06-10T10:29:45;20.90;99.90
5631;DHT22;2837;50.990;7.124;2023-06-10T10:32:12;20.90;99.90
5631;DHT22;2837;50.990;7.124;2023-06-10T10:34:43;21.00;99.90
5631;DHT22;2837;50.990;7.124;2023-06-10T10:42:06;21.00;99.90
5631;DHT22;2837;50.990;7.124;2023-06-10T10:44:35;21.00;99.90
5631;DHT22;2837;50.990;7.124;2023-06-10T10:47:03;21.00;99.90
5631;DHT22;2837;50.990;7.124;2023-06-10T10:49:30;21.10;99.90
5631;DHT22;2837;50.990;7.124;2023-06-10T10:51:56;21.00;99.90
5631;DHT22;2837;50.990;7.124;2023-06-10T10:57:13;21.10;99.90
5631;DHT22;2837;50.990;7.124;2023-06-10T10:59:46;21.10;99.90
5631;DHT22;2837;50.990;7.124;2023-06-10T11:02:18;21.10;99.90
5631;DHT22;2837;50.990;7.124;2023-06-10T11:04:56;21.20;99.90
5631;DHT22;2837;50.990;7.124;2023-06-10T11:07:24;21.10;99.90
5631;DHT22;2837;50.990;7.124;2023-06-10T11:10:01;21.10;99.90
5631;DHT22;2837;50.990;7.124;2023-06-10T11:15:12;21.10;99.90
5631;DHT22;2837;50.990;7.124;2023-06-10T11:18:14;21.10;99.90
5631;DHT22;2837;50.990;7.124;2023-06-10T11:26:43;21.10;99.90
5631;DHT22;2837;50.990;7.124;2023-06-10T11:31:43;21.10;99.90
5631;DHT22;2837;50.990;7.124;2023-06-10T11:36:41;21.10;99.90
5631;DHT22;2837;50.990;7.124;2023-06-10T11:39:09;21.10;99.90
5631;DHT22;2837;50.990;7.124;2023-06-10T11:41:36;21.10;99.90
5631;DHT22;2837;50.990;7.124;2023-06-10T11:44:04;21.10;99.90
5631;DHT22;2837;50.990;7.124;2023-06-10T11:48:59;21.20;99.90
5631;DHT22;2837;50.990;7.124;2023-06-10T11:51:30;21.30;99.90
5631;DHT22;2837;50.990;7.124;2023-06-10T11:53:56;21.50;99.90
5631;DHT22;2837;50.990;7.124;2023-06-10T11:56:23;21.50;99.90
5631;DHT22;2837;50.990;7.124;2023-06-10T11:58:53;21.70;99.90
5631;DHT22;2837;50.990;7.124;2023-06-10T12:06:13;22.00;99.90
5631;DHT22;2837;50.990;7.124;2023-06-10T12:08:42;22.00;99.90
5631;DHT22;2837;50.990;7.124;2023-06-10T12:11:08;22.00;99.90
5631;DHT22;2837;50.990;7.124;2023-06-10T12:16:07;21.80;99.90
5631;DHT22;2837;50.990;7.124;2023-06-10T12:23:25;21.80;99.90
5631;DHT22;2837;50.990;7.124;2023-06-10T12:25:52;21.70;99.90
5631;DHT22;2837;50.990;7.124;2023-06-10T12:28:24;21.70;99.90
5631;DHT22;2837;50.990;7.124;2023-06-10T12:30:50;21.70;99.90
5631;DHT22;2837;50.990;7.124;2023-06-10T12:33:17;21.80;99.90
5631;DHT22;2837;50.990;7.124;2023-06-10T12:35:52;21.90;99.90
5631;DHT22;2837;50.990;7.124;2023-06-10T12:38:22;21.90;99.90
5631;DHT22;2837;50.990;7.124;2023-06-10T12:40:50;21.90;99.90
5631;DHT22;2837;50.990;7.124;2023-06-10T12:43:20;21.90;99.90
5631;DHT22;2837;50.990;7.124;2023-06-10T14:01:38;22.80;83.30
5631;DHT22;2837;50.990;7.124;2023-06-10T14:04:04;22.70;86.50
5631;DHT22;2837;50.990;7.124;2023-06-10T14:06:30;22.60;94.90
5631;DHT22;2837;50.990;7.124;2023-06-10T14:28:24;22.10;99.90
5631;DHT22;2837;50.990;7.124;2023-06-10T14:40:36;22.00;99.90
5631;DHT22;2837;50.990;7.124;2023-06-10T15:00:07;22.40;91.40
5631;DHT22;2837;50.990;7.124;2023-06-10T15:39:04;22.30;83.20
5631;DHT22;2837;50.990;7.124;2023-06-10T15:46:30;22.40;90.20
5631;DHT22;2837;50.990;7.124;2023-06-10T15:48:57;22.60;76.50
5631;DHT22;2837;50.990;7.124;2023-06-10T16:03:35;22.50;93.90
5631;DHT22;2837;50.990;7.124;2023-06-10T16:23:04;22.70;92.80
5631;DHT22;2837;50.990;7.124;2023-06-10T16:25:30;22.80;84.30
5631;DHT22;2837;50.990;7.124;2023-06-10T16:42:33;22.90;88.30
5631;DHT22;2837;50.990;7.124;2023-06-10T17:06:54;23.00;85.10
5631;DHT22;2837;50.990;7.124;2023-06-10T17:14:12;22.90;90.10
5631;DHT22;2837;50.990;7.124;2023-06-10T17:31:13;22.80;99.20
5631;DHT22;2837;50.990;7.124;2023-06-10T17:33:39;22.70;99.90
5631;DHT22;2837;50.990;7.124;2023-06-10T17:36:05;22.70;95.40
5631;DHT22;2837;50.990;7.124;2023-06-10T18:02:54;22.60;99.90
5631;DHT22;2837;50.990;7.124;2023-06-10T18:07:46;22.50;99.90
5631;DHT22;2837;50.990;7.124;2023-06-10T18:17:31;22.30;99.90
5631;DHT22;2837;50.990;7.124;2023-06-10T18:29:42;22.30;99.90
5631;DHT22;2837;50.990;7.124;2023-06-10T18:34:34;22.20;99.90
5631;DHT22;2837;50.990;7.124;2023-06-10T18:39:28;22.20;99.90
5631;DHT22;2837;50.990;7.124;2023-06-10T19:03:48;21.90;99.90
5631;DHT22;2837;50.990;7.124;2023-06-10T19:13:32;21.80;99.90
5631;DHT22;2837;50.990;7.124;2023-06-10T19:30:35;21.80;99.90
5631;DHT22;2837;50.990;7.124;2023-06-10T19:42:46;21.60;99.90
5631;DHT22;2837;50.990;7.124;2023-06-10T20:04:41;21.40;99.90
5631;DHT22;2837;50.990;7.124;2023-06-10T20:19:21;21.30;99.90
5631;DHT22;2837;50.990;7.124;2023-06-10T20:29:04;21.30;99.90
